createdAt,value
2018-03-22T00:00:16.083Z,1011.65
2018-03-22T00:01:16.057Z,1011.64
2018-03-22T00:02:16.164Z,1011.68
2018-03-22T00:03:16.057Z,1011.67
2018-03-22T00:04:16.170Z,1011.59
2018-03-22T00:05:16.178Z,1011.63
2018-03-22T00:06:16.173Z,1011.59
2018-03-22T00:07:16.087Z,1011.62
2018-03-22T00:08:16.088Z,1011.53
2018-03-22T00:09:16.174Z,1011.57
2018-03-22T00:10:16.121Z,1011.54
2018-03-22T00:11:16.066Z,1011.58
2018-03-22T00:12:16.178Z,1011.57
2018-03-22T00:13:16.065Z,1011.58
2018-03-22T00:14:16.190Z,1011.56
2018-03-22T00:15:16.177Z,1011.57
2018-03-22T00:16:16.093Z,1011.62
2018-03-22T00:17:16.069Z,1011.61
2018-03-22T00:18:16.132Z,1011.56
2018-03-22T00:19:16.178Z,1011.56
2018-03-22T00:20:16.160Z,1011.53
2018-03-22T00:21:16.096Z,1011.49
2018-03-22T00:22:16.096Z,1011.48
2018-03-22T00:23:16.135Z,1011.45
2018-03-22T00:24:16.094Z,1011.46
2018-03-22T00:25:16.191Z,1011.39
2018-03-22T00:26:16.162Z,1011.41
2018-03-22T00:27:16.193Z,1011.40
2018-03-22T00:28:16.106Z,1011.38
2018-03-22T00:29:16.142Z,1011.34
2018-03-22T00:30:16.107Z,1011.33
2018-03-22T00:31:16.076Z,1011.31
2018-03-22T00:32:16.137Z,1011.32
2018-03-22T00:33:16.182Z,1011.28
2018-03-22T00:34:16.203Z,1011.25
2018-03-22T00:35:16.198Z,1011.16
2018-03-22T00:36:16.097Z,1011.23
2018-03-22T00:37:16.216Z,1011.21
2018-03-22T00:38:16.186Z,1011.22
2018-03-22T00:39:16.234Z,1011.19
2018-03-22T00:40:16.075Z,1011.15
2018-03-22T00:41:16.142Z,1011.14
2018-03-22T00:42:16.187Z,1011.11
2018-03-22T00:43:16.075Z,1011.10
2018-03-22T00:44:16.117Z,1011.11
2018-03-22T00:45:16.113Z,1011.10
2018-03-22T00:46:16.091Z,1011.10
2018-03-22T00:47:16.194Z,1011.06
2018-03-22T00:48:16.082Z,1011.07
2018-03-22T00:49:16.087Z,1011.07
2018-03-22T00:50:16.199Z,1011.03
2018-03-22T00:51:16.156Z,1011.00
2018-03-22T00:52:16.153Z,1010.99
2018-03-22T00:53:16.200Z,1010.98
2018-03-22T00:54:16.147Z,1010.97
2018-03-22T00:55:16.076Z,1010.95
2018-03-22T00:56:16.090Z,1010.95
2018-03-22T00:57:16.212Z,1010.91
2018-03-22T00:58:16.158Z,1010.88
2018-03-22T00:59:16.202Z,1010.86
2018-03-22T01:00:16.201Z,1010.81
2018-03-22T01:01:16.151Z,1010.75
2018-03-22T01:02:16.201Z,1010.68
2018-03-22T01:03:16.095Z,1010.67
2018-03-22T01:04:16.187Z,1010.66
2018-03-22T01:05:16.121Z,1010.62
2018-03-22T01:06:16.182Z,1010.58
2018-03-22T01:07:16.204Z,1010.59
2018-03-22T01:08:16.183Z,1010.54
2018-03-22T01:09:16.123Z,1010.53
2018-03-22T01:10:16.120Z,1010.54
2018-03-22T01:11:16.184Z,1010.51
2018-03-22T01:12:16.215Z,1010.48
2018-03-22T01:13:16.158Z,1010.43
2018-03-22T01:14:16.099Z,1010.39
2018-03-22T01:15:16.187Z,1010.37
2018-03-22T01:16:16.218Z,1010.36
2018-03-22T01:17:16.210Z,1010.33
2018-03-22T01:18:16.167Z,1010.29
2018-03-22T01:19:16.163Z,1010.27
2018-03-22T01:20:16.194Z,1010.32
2018-03-22T01:21:16.129Z,1010.26
2018-03-22T01:22:16.103Z,1010.28
2018-03-22T01:23:16.169Z,1010.24
2018-03-22T01:24:16.227Z,1010.21
2018-03-22T01:25:16.130Z,1010.17
2018-03-22T01:26:16.130Z,1010.11
2018-03-22T01:27:16.219Z,1010.12
2018-03-22T01:28:16.111Z,1010.12
2018-03-22T01:29:16.202Z,1010.15
2018-03-22T01:30:16.108Z,1010.11
2018-03-22T01:31:16.135Z,1010.09
2018-03-22T01:32:16.172Z,1010.06
2018-03-22T01:33:16.195Z,1010.08
2018-03-22T01:34:16.232Z,1010.01
2018-03-22T01:35:16.144Z,1009.97
2018-03-22T01:36:16.120Z,1009.97
2018-03-22T01:37:16.236Z,1009.97
2018-03-22T01:38:16.187Z,1009.97
2018-03-22T01:39:16.111Z,1009.95
2018-03-22T01:40:16.116Z,1009.94
2018-03-22T01:41:16.138Z,1009.91
2018-03-22T01:42:16.175Z,1009.92
2018-03-22T01:43:16.122Z,1009.90
2018-03-22T01:44:16.117Z,1009.92
2018-03-22T01:45:16.145Z,1009.94
2018-03-22T01:46:16.241Z,1009.92
2018-03-22T01:47:16.229Z,1009.91
2018-03-22T01:48:16.240Z,1009.92
2018-03-22T01:49:16.203Z,1009.93
2018-03-22T01:50:16.146Z,1009.85
2018-03-22T01:51:16.237Z,1009.88
2018-03-22T01:52:16.188Z,1009.81
2018-03-22T01:53:16.128Z,1009.81
2018-03-22T01:54:16.237Z,1009.79
2018-03-22T01:55:16.302Z,1009.78
2018-03-22T01:56:16.162Z,1009.72
2018-03-22T01:57:16.239Z,1009.71
2018-03-22T01:58:16.148Z,1009.72
2018-03-22T01:59:16.211Z,1009.70
2018-03-22T02:00:16.234Z,1009.65
2018-03-22T02:01:16.212Z,1009.63
2018-03-22T02:02:16.240Z,1009.60
2018-03-22T02:03:16.239Z,1009.61
2018-03-22T02:04:16.241Z,1009.53
2018-03-22T02:05:16.245Z,1009.52
2018-03-22T02:06:16.238Z,1009.48
2018-03-22T02:07:16.191Z,1009.46
2018-03-22T02:08:16.153Z,1009.47
2018-03-22T02:09:16.247Z,1009.45
2018-03-22T02:10:16.220Z,1009.44
2018-03-22T02:11:16.136Z,1009.41
2018-03-22T02:12:16.242Z,1009.41
2018-03-22T02:13:16.246Z,1009.39
2018-03-22T02:14:16.204Z,1009.36
2018-03-22T02:15:16.196Z,1009.37
2018-03-22T02:16:16.226Z,1009.32
2018-03-22T02:17:16.229Z,1009.25
2018-03-22T02:18:16.224Z,1009.26
2018-03-22T02:19:16.132Z,1009.26
2018-03-22T02:20:16.223Z,1009.22
2018-03-22T02:21:16.161Z,1009.24
2018-03-22T02:22:16.169Z,1009.20
2018-03-22T02:23:16.200Z,1009.16
2018-03-22T02:24:16.198Z,1009.13
2018-03-22T02:25:16.256Z,1009.09
2018-03-22T02:26:16.254Z,1009.08
2018-03-22T02:27:16.252Z,1009.10
2018-03-22T02:28:16.201Z,1009.01
2018-03-22T02:29:16.237Z,1009.03
2018-03-22T02:30:16.252Z,1009.04
2018-03-22T02:31:16.143Z,1009.02
2018-03-22T02:32:16.229Z,1008.98
2018-03-22T02:33:16.264Z,1008.98
2018-03-22T02:34:16.232Z,1008.96
2018-03-22T02:35:16.171Z,1008.92
2018-03-22T02:36:16.145Z,1008.95
2018-03-22T02:37:16.182Z,1008.94
2018-03-22T02:38:16.261Z,1008.92
2018-03-22T02:39:16.223Z,1008.85
2018-03-22T02:40:16.232Z,1008.78
2018-03-22T02:41:16.177Z,1008.80
2018-03-22T02:42:16.237Z,1008.72
2018-03-22T02:43:16.150Z,1008.73
2018-03-22T02:44:16.180Z,1008.66
2018-03-22T02:45:16.244Z,1008.72
2018-03-22T02:46:16.266Z,1008.69
2018-03-22T02:47:16.262Z,1008.67
2018-03-22T02:48:16.151Z,1008.67
2018-03-22T02:49:16.285Z,1008.64
2018-03-22T02:50:16.155Z,1008.68
2018-03-22T02:51:16.184Z,1008.65
2018-03-22T02:52:16.267Z,1008.64
2018-03-22T02:53:16.276Z,1008.59
2018-03-22T02:54:16.215Z,1008.60
2018-03-22T02:55:16.224Z,1008.63
2018-03-22T02:56:16.183Z,1008.66
2018-03-22T02:57:16.251Z,1008.67
2018-03-22T02:58:16.270Z,1008.62
2018-03-22T02:59:16.273Z,1008.66
2018-03-22T03:00:16.249Z,1008.58
2018-03-22T03:01:16.277Z,1008.50
2018-03-22T03:02:16.222Z,1008.48
2018-03-22T03:03:16.236Z,1008.47
2018-03-22T03:04:16.228Z,1008.47
2018-03-22T03:05:16.276Z,1008.48
2018-03-22T03:06:16.277Z,1008.42
2018-03-22T03:07:16.275Z,1008.39
2018-03-22T03:08:16.287Z,1008.39
2018-03-22T03:09:16.283Z,1008.38
2018-03-22T03:10:16.193Z,1008.36
2018-03-22T03:11:16.166Z,1008.28
2018-03-22T03:12:16.283Z,1008.32
2018-03-22T03:13:16.231Z,1008.28
2018-03-22T03:14:16.297Z,1008.28
2018-03-22T03:15:16.281Z,1008.26
2018-03-22T03:16:16.284Z,1008.23
2018-03-22T03:17:16.286Z,1008.20
2018-03-22T03:18:16.264Z,1008.11
2018-03-22T03:19:16.289Z,1008.04
2018-03-22T03:20:16.292Z,1008.07
2018-03-22T03:21:16.240Z,1007.98
2018-03-22T03:22:16.194Z,1008.00
2018-03-22T03:23:16.240Z,1008.00
2018-03-22T03:24:16.265Z,1008.06
2018-03-22T03:25:16.301Z,1008.05
2018-03-22T03:26:16.173Z,1008.04
2018-03-22T03:27:16.234Z,1008.03
2018-03-22T03:28:16.203Z,1008.00
2018-03-22T03:29:16.293Z,1008.02
2018-03-22T03:30:16.299Z,1007.99
2018-03-22T03:31:16.271Z,1007.99
2018-03-22T03:32:16.178Z,1007.91
2018-03-22T03:33:16.186Z,1007.89
2018-03-22T03:34:16.205Z,1007.87
2018-03-22T03:35:16.267Z,1007.85
2018-03-22T03:36:16.203Z,1007.81
2018-03-22T03:37:16.306Z,1007.78
2018-03-22T03:38:16.240Z,1007.73
2018-03-22T03:39:16.255Z,1007.71
2018-03-22T03:40:16.305Z,1007.72
2018-03-22T03:41:16.276Z,1007.68
2018-03-22T03:42:16.303Z,1007.65
2018-03-22T03:43:16.210Z,1007.67
2018-03-22T03:44:16.215Z,1007.61
2018-03-22T03:45:16.259Z,1007.67
2018-03-22T03:46:16.181Z,1007.60
2018-03-22T03:47:16.301Z,1007.65
2018-03-22T03:48:16.411Z,1007.64
2018-03-22T03:49:16.281Z,1007.59
2018-03-22T03:50:16.217Z,1007.56
2018-03-22T03:51:16.280Z,1007.57
2018-03-22T03:52:16.302Z,1007.50
2018-03-22T03:53:16.261Z,1007.53
2018-03-22T03:54:16.283Z,1007.41
2018-03-22T03:55:16.190Z,1007.42
2018-03-22T03:56:16.311Z,1007.45
2018-03-22T03:57:16.263Z,1007.33
2018-03-22T03:58:16.306Z,1007.40
2018-03-22T03:59:16.304Z,1007.40
2018-03-22T04:00:16.309Z,1007.38
2018-03-22T04:01:16.255Z,1007.36
2018-03-22T04:02:16.305Z,1007.33
2018-03-22T04:03:16.258Z,1007.33
2018-03-22T04:04:16.266Z,1007.28
2018-03-22T04:05:16.198Z,1007.23
2018-03-22T04:06:16.225Z,1007.26
2018-03-22T04:07:16.223Z,1007.25
2018-03-22T04:08:16.239Z,1007.27
2018-03-22T04:09:16.260Z,1007.22
2018-03-22T04:10:16.203Z,1007.23
2018-03-22T04:11:16.275Z,1007.20
2018-03-22T04:12:16.276Z,1007.20
2018-03-22T04:13:16.206Z,1007.18
2018-03-22T04:14:16.231Z,1007.19
2018-03-22T04:15:16.246Z,1007.18
2018-03-22T04:16:16.278Z,1007.12
2018-03-22T04:17:16.323Z,1007.08
2018-03-22T04:18:16.284Z,1007.07
2018-03-22T04:19:16.237Z,1007.04
2018-03-22T04:20:16.321Z,1007.01
2018-03-22T04:21:16.272Z,1006.99
2018-03-22T04:22:16.301Z,1007.00
2018-03-22T04:23:16.334Z,1007.01
2018-03-22T04:24:16.297Z,1006.93
2018-03-22T04:25:16.278Z,1006.95
2018-03-22T04:26:16.324Z,1006.92
2018-03-22T04:27:16.280Z,1006.90
2018-03-22T04:28:16.333Z,1006.87
2018-03-22T04:29:16.249Z,1006.86
2018-03-22T04:30:16.325Z,1006.82
2018-03-22T04:31:16.277Z,1006.79
2018-03-22T04:32:16.329Z,1006.78
2018-03-22T04:33:16.329Z,1006.71
2018-03-22T04:34:16.212Z,1006.76
2018-03-22T04:35:16.276Z,1006.77
2018-03-22T04:36:16.250Z,1006.69
2018-03-22T04:37:16.286Z,1006.69
2018-03-22T04:38:16.278Z,1006.70
2018-03-22T04:39:16.287Z,1006.70
2018-03-22T04:40:16.289Z,1006.64
2018-03-22T04:41:16.283Z,1006.67
2018-03-22T04:42:16.223Z,1006.68
2018-03-22T04:43:16.260Z,1006.65
2018-03-22T04:44:16.388Z,1006.64
2018-03-22T04:46:16.287Z,1006.60
2018-03-22T04:47:16.255Z,1006.60
2018-03-22T04:48:16.316Z,1006.59
2018-03-22T04:49:16.252Z,1006.53
2018-03-22T04:50:16.336Z,1006.51
2018-03-22T04:51:16.287Z,1006.53
2018-03-22T04:52:16.253Z,1006.51
2018-03-22T04:53:16.231Z,1006.52
2018-03-22T04:54:16.308Z,1006.54
2018-03-22T04:55:16.291Z,1006.49
2018-03-22T04:56:16.342Z,1006.48
2018-03-22T04:57:16.254Z,1006.47
2018-03-22T04:58:16.289Z,1006.47
2018-03-22T04:59:16.324Z,1006.47
2018-03-22T05:00:16.292Z,1006.41
2018-03-22T05:01:16.322Z,1006.36
2018-03-22T05:02:16.298Z,1006.35
2018-03-22T05:03:16.228Z,1006.33
2018-03-22T05:04:16.364Z,1006.31
2018-03-22T05:05:16.294Z,1006.28
2018-03-22T05:06:16.353Z,1006.26
2018-03-22T05:07:16.266Z,1006.28
2018-03-22T05:08:16.308Z,1006.20
2018-03-22T05:09:16.350Z,1006.23
2018-03-22T05:10:16.333Z,1006.17
2018-03-22T05:11:16.237Z,1006.18
2018-03-22T05:12:16.262Z,1006.09
2018-03-22T05:13:16.362Z,1006.05
2018-03-22T05:14:16.331Z,1006.05
2018-03-22T05:15:16.351Z,1006.06
2018-03-22T05:16:16.354Z,1006.03
2018-03-22T05:17:16.360Z,1005.98
2018-03-22T05:18:16.355Z,1005.95
2018-03-22T05:19:16.357Z,1005.92
2018-03-22T05:20:16.242Z,1005.96
2018-03-22T05:21:16.242Z,1005.91
2018-03-22T05:22:16.248Z,1005.92
2018-03-22T05:23:16.275Z,1005.90
2018-03-22T05:24:16.318Z,1005.87
2018-03-22T05:25:16.308Z,1005.88
2018-03-22T05:26:16.253Z,1005.90
2018-03-22T05:27:16.312Z,1005.91
2018-03-22T05:28:16.281Z,1005.87
2018-03-22T05:29:16.364Z,1005.83
2018-03-22T05:30:16.245Z,1005.84
2018-03-22T05:31:16.362Z,1005.82
2018-03-22T05:32:16.367Z,1005.77
2018-03-22T05:33:16.343Z,1005.78
2018-03-22T05:34:16.345Z,1005.79
2018-03-22T05:35:16.279Z,1005.77
2018-03-22T05:36:16.253Z,1005.74
2018-03-22T05:37:16.372Z,1005.72
2018-03-22T05:38:16.377Z,1005.73
2018-03-22T05:39:16.314Z,1005.74
2018-03-22T05:40:16.374Z,1005.69
2018-03-22T05:41:16.263Z,1005.68
2018-03-22T05:42:16.257Z,1005.67
2018-03-22T05:43:16.349Z,1005.67
2018-03-22T05:44:16.370Z,1005.68
2018-03-22T05:45:16.351Z,1005.68
2018-03-22T05:46:16.371Z,1005.71
2018-03-22T05:47:16.283Z,1005.61
2018-03-22T05:48:16.295Z,1005.58
2018-03-22T05:49:16.261Z,1005.60
2018-03-22T05:50:16.295Z,1005.53
2018-03-22T05:51:16.389Z,1005.55
2018-03-22T05:52:16.354Z,1005.53
2018-03-22T05:53:16.261Z,1005.48
2018-03-22T05:54:16.289Z,1005.46
2018-03-22T05:55:16.330Z,1005.50
2018-03-22T05:56:16.375Z,1005.43
2018-03-22T05:57:16.377Z,1005.40
2018-03-22T05:58:16.262Z,1005.39
2018-03-22T05:59:16.334Z,1005.42
2018-03-22T06:00:16.335Z,1005.40
2018-03-22T06:01:16.305Z,1005.40
2018-03-22T06:02:16.266Z,1005.36
2018-03-22T06:04:16.338Z,1005.26
2018-03-22T06:05:16.307Z,1005.27
2018-03-22T06:06:16.337Z,1005.27
2018-03-22T06:07:16.346Z,1005.22
2018-03-22T06:08:16.277Z,1005.21
2018-03-22T06:09:16.385Z,1005.13
2018-03-22T06:10:16.300Z,1005.18
2018-03-22T06:11:16.272Z,1005.12
2018-03-22T06:12:16.389Z,1005.12
2018-03-22T06:13:16.269Z,1005.15
2018-03-22T06:14:16.340Z,1005.15
2018-03-22T06:15:16.278Z,1005.12
2018-03-22T06:16:16.347Z,1005.04
2018-03-22T06:17:16.341Z,1005.06
2018-03-22T06:18:16.332Z,1005.06
2018-03-22T06:19:16.395Z,1004.97
2018-03-22T06:20:16.309Z,1004.94
2018-03-22T06:21:16.358Z,1004.92
2018-03-22T06:22:16.285Z,1004.87
2018-03-22T06:23:16.309Z,1004.86
2018-03-22T06:24:16.394Z,1004.87
2018-03-22T06:25:16.279Z,1004.88
2018-03-22T06:26:16.402Z,1004.92
2018-03-22T06:27:16.371Z,1004.89
2018-03-22T06:28:16.351Z,1004.84
2018-03-22T06:29:16.289Z,1004.84
2018-03-22T06:30:16.278Z,1004.88
2018-03-22T06:31:16.314Z,1004.81
2018-03-22T06:32:16.318Z,1004.78
2018-03-22T06:33:16.290Z,1004.82
2018-03-22T06:34:16.384Z,1004.77
2018-03-22T06:35:16.353Z,1004.80
2018-03-22T06:36:16.399Z,1004.82
2018-03-22T06:37:16.319Z,1004.78
2018-03-22T06:38:16.287Z,1004.75
2018-03-22T06:39:16.343Z,1004.77
2018-03-22T06:40:16.352Z,1004.76
2018-03-22T06:41:16.381Z,1004.65
2018-03-22T06:42:16.343Z,1004.62
2018-03-22T06:43:16.403Z,1004.57
2018-03-22T06:44:16.411Z,1004.64
2018-03-22T06:45:16.291Z,1004.64
2018-03-22T06:46:16.403Z,1004.59
2018-03-22T06:47:16.386Z,1004.61
2018-03-22T06:48:16.355Z,1004.56
2018-03-22T06:49:16.381Z,1004.54
2018-03-22T06:50:16.301Z,1004.54
2018-03-22T06:51:16.301Z,1004.54
2018-03-22T06:52:16.385Z,1004.51
2018-03-22T06:53:16.328Z,1004.50
2018-03-22T06:54:16.392Z,1004.45
2018-03-22T06:55:16.408Z,1004.48
2018-03-22T06:56:16.296Z,1004.48
2018-03-22T06:57:16.358Z,1004.44
2018-03-22T06:58:16.302Z,1004.41
2018-03-22T06:59:16.371Z,1004.43
2018-03-22T07:00:16.422Z,1004.42
2018-03-22T07:01:16.393Z,1004.44
2018-03-22T07:02:16.412Z,1004.46
2018-03-22T07:03:16.422Z,1004.48
2018-03-22T07:04:16.334Z,1004.51
2018-03-22T07:05:16.415Z,1004.43
2018-03-22T07:06:16.336Z,1004.44
2018-03-22T07:07:16.327Z,1004.43
2018-03-22T07:08:16.375Z,1004.43
2018-03-22T07:09:16.400Z,1004.49
2018-03-22T07:10:16.333Z,1004.47
2018-03-22T07:11:16.422Z,1004.44
2018-03-22T07:12:16.378Z,1004.43
2018-03-22T07:13:16.369Z,1004.43
2018-03-22T07:14:16.321Z,1004.44
2018-03-22T07:15:16.379Z,1004.39
2018-03-22T07:16:16.431Z,1004.41
2018-03-22T07:17:16.308Z,1004.39
2018-03-22T07:18:16.309Z,1004.39
2018-03-22T07:19:16.431Z,1004.44
2018-03-22T07:20:16.368Z,1004.37
2018-03-22T07:21:16.373Z,1004.40
2018-03-22T07:22:16.383Z,1004.42
2018-03-22T07:23:16.312Z,1004.41
2018-03-22T07:24:16.384Z,1004.41
2018-03-22T07:25:16.348Z,1004.42
2018-03-22T07:26:16.409Z,1004.35
2018-03-22T07:27:16.426Z,1004.38
2018-03-22T07:28:16.426Z,1004.39
2018-03-22T07:29:16.435Z,1004.36
2018-03-22T07:30:16.389Z,1004.42
2018-03-22T07:31:16.407Z,1004.38
2018-03-22T07:32:16.371Z,1004.45
2018-03-22T07:33:16.436Z,1004.39
2018-03-22T07:34:16.411Z,1004.40
2018-03-22T07:35:16.435Z,1004.37
2018-03-22T07:36:16.345Z,1004.33
2018-03-22T07:37:16.389Z,1004.37
2018-03-22T07:38:16.441Z,1004.39
2018-03-22T07:39:16.480Z,1004.33
2018-03-22T07:40:16.411Z,1004.32
2018-03-22T07:41:16.359Z,1004.26
2018-03-22T07:42:16.409Z,1004.29
2018-03-22T07:43:16.395Z,1004.27
2018-03-22T07:44:16.418Z,1004.30
2018-03-22T07:45:16.392Z,1004.26
2018-03-22T07:46:16.449Z,1004.30
2018-03-22T07:47:16.465Z,1004.28
2018-03-22T07:48:16.447Z,1004.24
2018-03-22T07:49:16.329Z,1004.28
2018-03-22T07:50:16.432Z,1004.28
2018-03-22T07:51:16.452Z,1004.28
2018-03-22T07:52:16.371Z,1004.29
2018-03-22T07:53:16.431Z,1004.24
2018-03-22T07:54:16.330Z,1004.22
2018-03-22T07:55:16.331Z,1004.14
2018-03-22T07:56:16.403Z,1004.22
2018-03-22T07:57:16.402Z,1004.15
2018-03-22T07:58:16.343Z,1004.14
2018-03-22T07:59:16.423Z,1004.05
2018-03-22T08:00:16.429Z,1004.03
2018-03-22T08:01:16.345Z,1004.00
2018-03-22T08:02:16.364Z,1003.99
2018-03-22T08:03:16.405Z,1004.02
2018-03-22T08:04:16.456Z,1004.01
2018-03-22T08:05:16.337Z,1003.96
2018-03-22T08:06:16.458Z,1004.00
2018-03-22T08:07:16.399Z,1003.97
2018-03-22T08:08:16.349Z,1003.88
2018-03-22T08:09:16.453Z,1003.83
2018-03-22T08:10:16.349Z,1003.86
2018-03-22T08:11:16.377Z,1003.86
2018-03-22T08:12:16.357Z,1003.86
2018-03-22T08:13:16.386Z,1003.84
2018-03-22T08:14:16.400Z,1003.82
2018-03-22T08:15:16.376Z,1003.86
2018-03-22T08:16:16.466Z,1003.81
2018-03-22T08:17:16.368Z,1003.85
2018-03-22T08:18:16.349Z,1003.84
2018-03-22T08:19:16.422Z,1003.81
2018-03-22T08:20:16.468Z,1003.83
2018-03-22T08:21:16.418Z,1003.91
2018-03-22T08:22:16.357Z,1003.87
2018-03-22T08:23:16.357Z,1003.84
2018-03-22T08:24:16.468Z,1003.78
2018-03-22T08:25:16.471Z,1003.75
2018-03-22T08:26:16.478Z,1003.78
2018-03-22T08:27:16.413Z,1003.73
2018-03-22T08:28:16.467Z,1003.72
2018-03-22T08:29:16.354Z,1003.71
2018-03-22T08:30:16.418Z,1003.70
2018-03-22T08:31:16.476Z,1003.70
2018-03-22T08:32:16.379Z,1003.67
2018-03-22T08:33:16.386Z,1003.69
2018-03-22T08:34:16.477Z,1003.70
2018-03-22T08:35:16.469Z,1003.69
2018-03-22T08:36:16.365Z,1003.64
2018-03-22T08:37:16.422Z,1003.61
2018-03-22T08:38:16.426Z,1003.63
2018-03-22T08:39:16.428Z,1003.58
2018-03-22T08:40:16.481Z,1003.62
2018-03-22T08:41:16.433Z,1003.61
2018-03-22T08:42:16.433Z,1003.54
2018-03-22T08:43:16.451Z,1003.55
2018-03-22T08:44:16.425Z,1003.59
2018-03-22T08:45:16.394Z,1003.57
2018-03-22T08:46:16.358Z,1003.54
2018-03-22T08:47:16.459Z,1003.51
2018-03-22T08:48:16.532Z,1003.46
2018-03-22T08:49:16.453Z,1003.48
2018-03-22T08:50:16.483Z,1003.52
2018-03-22T08:51:16.402Z,1003.52
2018-03-22T08:52:16.367Z,1003.42
2018-03-22T08:53:16.368Z,1003.37
2018-03-22T08:54:16.399Z,1003.35
2018-03-22T08:55:16.463Z,1003.34
2018-03-22T08:56:16.441Z,1003.30
2018-03-22T08:57:16.442Z,1003.29
2018-03-22T08:58:16.398Z,1003.26
2018-03-22T08:59:16.440Z,1003.27
2018-03-22T09:00:16.441Z,1003.29
2018-03-22T09:01:16.462Z,1003.22
2018-03-22T09:02:16.370Z,1003.28
2018-03-22T09:03:16.439Z,1003.24
2018-03-22T09:04:16.470Z,1003.28
2018-03-22T09:05:16.493Z,1003.24
2018-03-22T09:06:16.374Z,1003.22
2018-03-22T09:07:16.497Z,1003.26
2018-03-22T09:08:16.498Z,1003.21
2018-03-22T09:09:16.494Z,1003.25
2018-03-22T09:10:16.386Z,1003.25
2018-03-22T09:11:16.490Z,1003.32
2018-03-22T09:12:16.387Z,1003.25
2018-03-22T09:13:16.465Z,1003.23
2018-03-22T09:14:16.531Z,1003.23
2018-03-22T09:15:16.496Z,1003.23
2018-03-22T09:16:16.415Z,1003.21
2018-03-22T09:17:16.497Z,1003.21
2018-03-22T09:18:16.391Z,1003.19
2018-03-22T09:19:16.480Z,1003.18
2018-03-22T09:20:16.500Z,1003.17
2018-03-22T09:21:16.449Z,1003.25
2018-03-22T09:22:16.501Z,1003.18
2018-03-22T09:23:16.448Z,1003.16
2018-03-22T09:24:16.507Z,1003.13
2018-03-22T09:25:16.474Z,1003.12
2018-03-22T09:26:16.471Z,1003.20
2018-03-22T09:27:16.421Z,1003.10
2018-03-22T09:28:16.512Z,1003.12
2018-03-22T09:29:16.398Z,1003.17
2018-03-22T09:30:16.501Z,1003.13
2018-03-22T09:31:16.391Z,1003.07
2018-03-22T09:32:16.510Z,1003.11
2018-03-22T09:33:16.483Z,1003.13
2018-03-22T09:34:16.400Z,1003.08
2018-03-22T09:35:16.464Z,1003.00
2018-03-22T09:36:16.514Z,1003.00
2018-03-22T09:37:16.511Z,1002.95
2018-03-22T09:38:16.428Z,1002.99
2018-03-22T09:39:16.428Z,1002.97
2018-03-22T09:40:16.399Z,1002.95
2018-03-22T09:41:16.474Z,1002.98
2018-03-22T09:42:16.398Z,1002.97
2018-03-22T09:43:16.408Z,1002.97
2018-03-22T09:44:16.519Z,1002.93
2018-03-22T09:45:16.466Z,1003.00
2018-03-22T09:46:16.471Z,1002.96
2018-03-22T09:47:16.519Z,1002.98
2018-03-22T09:48:16.412Z,1002.94
2018-03-22T09:49:16.427Z,1002.95
2018-03-22T09:50:16.407Z,1002.96
2018-03-22T09:51:16.467Z,1002.90
2018-03-22T09:52:16.522Z,1002.87
2018-03-22T09:53:16.428Z,1002.93
2018-03-22T09:54:16.524Z,1002.89
2018-03-22T09:55:16.493Z,1002.86
2018-03-22T09:56:16.520Z,1002.90
2018-03-22T09:57:16.440Z,1002.90
2018-03-22T09:58:16.416Z,1002.91
2018-03-22T09:59:16.528Z,1002.88
2018-03-22T10:00:16.477Z,1002.91
2018-03-22T10:01:16.420Z,1002.91
2018-03-22T10:02:16.521Z,1002.88
2018-03-22T10:03:16.456Z,1002.94
2018-03-22T10:04:16.413Z,1002.87
2018-03-22T10:05:16.434Z,1002.95
2018-03-22T10:06:16.410Z,1002.92
2018-03-22T10:07:16.524Z,1002.95
2018-03-22T10:08:16.485Z,1002.92
2018-03-22T10:09:16.477Z,1002.91
2018-03-22T10:10:16.422Z,1002.96
2018-03-22T10:11:16.535Z,1002.94
2018-03-22T10:12:16.416Z,1002.94
2018-03-22T10:13:16.534Z,1002.96
2018-03-22T10:14:16.485Z,1002.92
2018-03-22T10:15:16.529Z,1002.94
2018-03-22T10:16:16.513Z,1002.99
2018-03-22T10:17:16.538Z,1002.93
2018-03-22T10:18:16.420Z,1002.94
2018-03-22T10:19:16.493Z,1002.94
2018-03-22T10:20:16.452Z,1002.94
2018-03-22T10:21:16.536Z,1002.89
2018-03-22T10:22:16.417Z,1002.87
2018-03-22T10:23:16.509Z,1002.84
2018-03-22T10:24:16.485Z,1002.87
2018-03-22T10:25:16.518Z,1002.86
2018-03-22T10:26:16.491Z,1002.86
2018-03-22T10:27:16.481Z,1002.87
2018-03-22T10:28:16.458Z,1002.90
2018-03-22T10:29:16.470Z,1002.88
2018-03-22T10:30:16.516Z,1002.89
2018-03-22T10:31:16.546Z,1002.88
2018-03-22T10:32:16.513Z,1002.88
2018-03-22T10:33:16.543Z,1002.86
2018-03-22T10:34:16.552Z,1002.83
2018-03-22T10:35:16.437Z,1002.83
2018-03-22T10:36:16.440Z,1002.78
2018-03-22T10:37:16.518Z,1002.77
2018-03-22T10:38:16.463Z,1002.73
2018-03-22T10:39:16.469Z,1002.74
2018-03-22T10:40:16.432Z,1002.72
2018-03-22T10:41:16.498Z,1002.74
2018-03-22T10:42:16.480Z,1002.70
2018-03-22T10:43:16.469Z,1002.69
2018-03-22T10:44:16.546Z,1002.64
2018-03-22T10:45:16.523Z,1002.65
2018-03-22T10:46:16.443Z,1002.63
2018-03-22T10:47:16.448Z,1002.57
2018-03-22T10:48:16.493Z,1002.56
2018-03-22T10:49:16.468Z,1002.54
2018-03-22T10:50:16.505Z,1002.51
2018-03-22T10:51:16.501Z,1002.56
2018-03-22T10:52:16.441Z,1002.54
2018-03-22T10:53:16.553Z,1002.53
2018-03-22T10:54:16.512Z,1002.54
2018-03-22T10:55:16.532Z,1002.56
2018-03-22T10:56:16.513Z,1002.59
2018-03-22T10:57:16.566Z,1002.57
2018-03-22T10:58:16.567Z,1002.56
2018-03-22T10:59:16.564Z,1002.54
2018-03-22T11:00:16.513Z,1002.52
2018-03-22T11:01:16.564Z,1002.53
2018-03-22T11:02:16.449Z,1002.51
2018-03-22T11:03:16.477Z,1002.56
2018-03-22T11:04:16.458Z,1002.49
2018-03-22T11:05:16.505Z,1002.52
2018-03-22T11:06:16.475Z,1002.58
2018-03-22T11:07:16.458Z,1002.62
2018-03-22T11:08:16.483Z,1002.53
2018-03-22T11:09:16.521Z,1002.66
2018-03-22T11:10:16.519Z,1002.62
2018-03-22T11:11:16.525Z,1002.59
2018-03-22T11:12:16.454Z,1002.57
2018-03-22T11:13:16.519Z,1002.58
2018-03-22T11:14:16.516Z,1002.57
2018-03-22T11:15:16.581Z,1002.47
2018-03-22T11:16:16.572Z,1002.48
2018-03-22T11:17:16.485Z,1002.55
2018-03-22T11:18:16.527Z,1002.50
2018-03-22T11:19:16.570Z,1002.50
2018-03-22T11:20:16.518Z,1002.46
2018-03-22T11:21:16.487Z,1002.39
2018-03-22T11:22:16.460Z,1002.41
2018-03-22T11:23:16.491Z,1002.41
2018-03-22T11:24:16.522Z,1002.34
2018-03-22T11:25:16.529Z,1002.37
2018-03-22T11:26:16.460Z,1002.30
2018-03-22T11:27:16.489Z,1002.28
2018-03-22T11:28:16.552Z,1002.25
2018-03-22T11:29:16.577Z,1002.29
2018-03-22T11:30:16.466Z,1002.32
2018-03-22T11:31:16.466Z,1002.27
2018-03-22T11:32:16.498Z,1002.24
2018-03-22T11:33:16.588Z,1002.26
2018-03-22T11:34:16.462Z,1002.29
2018-03-22T11:35:16.462Z,1002.27
2018-03-22T11:36:16.465Z,1002.30
2018-03-22T11:37:16.577Z,1002.32
2018-03-22T11:38:16.591Z,1002.35
2018-03-22T11:39:16.504Z,1002.32
2018-03-22T11:40:16.540Z,1002.31
2018-03-22T11:41:16.482Z,1002.32
2018-03-22T11:42:16.557Z,1002.26
2018-03-22T11:43:16.567Z,1002.26
2018-03-22T11:44:16.557Z,1002.23
2018-03-22T11:45:16.567Z,1002.20
2018-03-22T11:46:16.472Z,1002.22
2018-03-22T11:47:16.542Z,1002.26
2018-03-22T11:48:16.531Z,1002.23
2018-03-22T11:49:16.534Z,1002.18
2018-03-22T11:50:16.520Z,1002.21
2018-03-22T11:51:16.571Z,1002.22
2018-03-22T11:52:16.536Z,1002.18
2018-03-22T11:53:16.548Z,1002.18
2018-03-22T11:54:16.574Z,1002.19
2018-03-22T11:55:16.487Z,1002.21
2018-03-22T11:56:16.474Z,1002.23
2018-03-22T11:57:16.540Z,1002.20
2018-03-22T11:58:16.575Z,1002.20
2018-03-22T11:59:16.503Z,1002.25
2018-03-22T12:00:16.481Z,1002.26
2018-03-22T12:01:16.505Z,1002.23
2018-03-22T12:02:16.480Z,1002.23
2018-03-22T12:03:16.605Z,1002.26
2018-03-22T12:04:16.557Z,1002.26
2018-03-22T12:05:16.483Z,1002.27
2018-03-22T12:06:16.602Z,1002.24
2018-03-22T12:07:16.493Z,1002.30